Puerto Maldonado, Puerto Maldonado International Airport (SPTU)

NamePuerto Maldonado International Airport
CityPuerto Maldonado
CountryPeru
ICAOSPTU
IATAPEM
Altitude201 m
CoordinatesGoogle Map
Live Air TrafficLiveATC.net
METARSPTU 091900Z VRB04KT 9999 SCT015 33/24 Q1009 RMK BIRD HAZARD RWY 01/19 PP000
2018-12-09 19:00:00 Wind: North (0°) 2.06 m/s - Visibility: > 10000 m - Temperature: 33 °C - Dew point: 24 °C - Humidity: 59.2% - Pressure: 1009 hPa
Statistics

The table below shows the detailed information of all flights to/from Puerto Maldonado, Puerto Maldonado International Airport (SPTU).